sensor_id;sensor_type;location;lat;lon;timestamp;pressure;altitude;pressure_sealevel;temperature;humidity
70248;BME280;57641;51.416;5.506;2023-02-28T00:00:34;103166.34;;;5.68;49.12
70248;BME280;57641;51.416;5.506;2023-02-28T00:03:01;103163.56;;;5.71;48.53
70248;BME280;57641;51.416;5.506;2023-02-28T00:05:28;103159.22;;;5.70;48.19
70248;BME280;57641;51.416;5.506;2023-02-28T00:07:54;103161.75;;;5.72;48.16
70248;BME280;57641;51.416;5.506;2023-02-28T00:10:23;103167.00;;;5.73;48.32
70248;BME280;57641;51.416;5.506;2023-02-28T00:12:50;103161.72;;;5.73;48.22
70248;BME280;57641;51.416;5.506;2023-02-28T00:15:23;103162.63;;;5.72;48.26
70248;BME280;57641;51.416;5.506;2023-02-28T00:17:49;103162.84;;;5.68;47.88
70248;BME280;57641;51.416;5.506;2023-02-28T00:20:16;103160.59;;;5.59;48.26
70248;BME280;57641;51.416;5.506;2023-02-28T00:22:44;103163.47;;;5.52;48.48
70248;BME280;57641;51.416;5.506;2023-02-28T00:25:12;103167.50;;;5.41;48.91
70248;BME280;57641;51.416;5.506;2023-02-28T00:27:40;103163.31;;;5.35;48.86
70248;BME280;57641;51.416;5.506;2023-02-28T00:30:09;103163.50;;;5.31;49.09
70248;BME280;57641;51.416;5.506;2023-02-28T00:32:35;103157.50;;;5.27;48.97
70248;BME280;57641;51.416;5.506;2023-02-28T00:35:01;103166.53;;;5.22;49.16
70248;BME280;57641;51.416;5.506;2023-02-28T00:37:27;103167.44;;;5.21;49.58
70248;BME280;57641;51.416;5.506;2023-02-28T00:39:53;103163.16;;;5.18;49.22
70248;BME280;57641;51.416;5.506;2023-02-28T00:42:22;103168.59;;;5.14;48.91
70248;BME280;57641;51.416;5.506;2023-02-28T00:44:51;103165.25;;;5.10;49.26
70248;BME280;57641;51.416;5.506;2023-02-28T00:47:17;103176.81;;;5.07;49.50
70248;BME280;57641;51.416;5.506;2023-02-28T00:49:43;103171.69;;;5.03;49.28
70248;BME280;57641;51.416;5.506;2023-02-28T00:52:09;103169.91;;;5.03;49.20
70248;BME280;57641;51.416;5.506;2023-02-28T00:54:35;103163.88;;;5.00;49.41
70248;BME280;57641;51.416;5.506;2023-02-28T00:57:01;103170.03;;;5.00;49.87
70248;BME280;57641;51.416;5.506;2023-02-28T00:59:30;103176.19;;;5.01;50.01
70248;BME280;57641;51.416;5.506;2023-02-28T01:01:56;103174.69;;;4.94;49.66
70248;BME280;57641;51.416;5.506;2023-02-28T01:04:22;103172.09;;;4.92;49.03
70248;BME280;57641;51.416;5.506;2023-02-28T01:06:48;103182.88;;;4.88;49.82
70248;BME280;57641;51.416;5.506;2023-02-28T01:09:14;103187.22;;;4.89;49.79
70248;BME280;57641;51.416;5.506;2023-02-28T01:11:43;103184.72;;;4.86;49.33
70248;BME280;57641;51.416;5.506;2023-02-28T01:14:12;103179.53;;;4.83;49.08
70248;BME280;57641;51.416;5.506;2023-02-28T01:16:38;103183.09;;;4.82;49.85
70248;BME280;57641;51.416;5.506;2023-02-28T01:19:04;103180.44;;;4.82;49.97
70248;BME280;57641;51.416;5.506;2023-02-28T01:21:29;103182.13;;;4.84;49.37
70248;BME280;57641;51.416;5.506;2023-02-28T01:23:56;103179.53;;;4.83;50.03
70248;BME280;57641;51.416;5.506;2023-02-28T01:26:23;103188.47;;;4.80;49.76
70248;BME280;57641;51.416;5.506;2023-02-28T01:28:50;103181.53;;;4.76;49.54
70248;BME280;57641;51.416;5.506;2023-02-28T01:31:17;103180.75;;;4.74;50.29
70248;BME280;57641;51.416;5.506;2023-02-28T01:33:44;103193.09;;;4.74;49.83
70248;BME280;57641;51.416;5.506;2023-02-28T01:36:19;103186.97;;;4.73;50.14
70248;BME280;57641;51.416;5.506;2023-02-28T01:38:46;103178.16;;;4.73;49.75
70248;BME280;57641;51.416;5.506;2023-02-28T01:41:21;103186.09;;;4.73;49.77
70248;BME280;57641;51.416;5.506;2023-02-28T01:46:13;103177.47;;;4.67;49.73
70248;BME280;57641;51.416;5.506;2023-02-28T01:48:46;103175.88;;;4.63;49.71
70248;BME280;57641;51.416;5.506;2023-02-28T01:51:17;103180.25;;;4.64;50.27
70248;BME280;57641;51.416;5.506;2023-02-28T01:54:09;103178.53;;;4.63;50.48
70248;BME280;57641;51.416;5.506;2023-02-28T01:56:43;103168.00;;;4.62;49.75
70248;BME280;57641;51.416;5.506;2023-02-28T01:59:10;103171.66;;;4.59;50.10
70248;BME280;57641;51.416;5.506;2023-02-28T02:01:38;103163.63;;;4.61;49.80
70248;BME280;57641;51.416;5.506;2023-02-28T02:04:03;103162.78;;;4.60;50.16
70248;BME280;57641;51.416;5.506;2023-02-28T02:06:36;103156.72;;;4.58;50.45
70248;BME280;57641;51.416;5.506;2023-02-28T02:09:05;103160.31;;;4.56;50.46
70248;BME280;57641;51.416;5.506;2023-02-28T02:11:32;103151.59;;;4.54;50.02
70248;BME280;57641;51.416;5.506;2023-02-28T02:22:20;103148.13;;;4.29;50.97
70248;BME280;57641;51.416;5.506;2023-02-28T02:24:55;103145.50;;;4.29;50.91
70248;BME280;57641;51.416;5.506;2023-02-28T02:27:46;103140.00;;;4.35;50.74
70248;BME280;57641;51.416;5.506;2023-02-28T02:45:00;103141.25;;;4.24;51.85
70248;BME280;57641;51.416;5.506;2023-02-28T02:47:26;103142.47;;;4.16;52.09
70248;BME280;57641;51.416;5.506;2023-02-28T02:49:56;103139.59;;;4.22;51.99
70248;BME280;57641;51.416;5.506;2023-02-28T02:52:42;103137.66;;;4.27;51.29
70248;BME280;57641;51.416;5.506;2023-02-28T02:55:11;103142.97;;;4.25;51.25
70248;BME280;57641;51.416;5.506;2023-02-28T02:57:54;103146.44;;;4.28;51.40
70248;BME280;57641;51.416;5.506;2023-02-28T03:00:31;103149.94;;;4.28;51.52
70248;BME280;57641;51.416;5.506;2023-02-28T03:03:02;103150.91;;;4.25;50.87
70248;BME280;57641;51.416;5.506;2023-02-28T03:05:49;103156.91;;;4.29;51.00
70248;BME280;57641;51.416;5.506;2023-02-28T03:08:16;103158.69;;;4.29;50.50
70248;BME280;57641;51.416;5.506;2023-02-28T03:10:48;103155.28;;;4.27;51.33
70248;BME280;57641;51.416;5.506;2023-02-28T03:16:11;103151.03;;;4.22;50.95
70248;BME280;57641;51.416;5.506;2023-02-28T03:24:19;103151.13;;;4.19;51.68
70248;BME280;57641;51.416;5.506;2023-02-28T03:26:58;103143.19;;;4.19;52.14
70248;BME280;57641;51.416;5.506;2023-02-28T03:29:45;103144.66;;;4.28;52.37
70248;BME280;57641;51.416;5.506;2023-02-28T03:35:06;103147.81;;;4.38;52.31
70248;BME280;57641;51.416;5.506;2023-02-28T03:37:35;103142.31;;;4.44;52.55
70248;BME280;57641;51.416;5.506;2023-02-28T03:40:08;103137.34;;;4.58;52.52
70248;BME280;57641;51.416;5.506;2023-02-28T03:42:36;103130.78;;;4.68;51.91
70248;BME280;57641;51.416;5.506;2023-02-28T03:45:16;103139.34;;;4.75;51.96
70248;BME280;57641;51.416;5.506;2023-02-28T03:48:02;103141.00;;;4.77;51.37
70248;BME280;57641;51.416;5.506;2023-02-28T03:50:44;103147.19;;;4.76;51.29
70248;BME280;57641;51.416;5.506;2023-02-28T03:53:21;103134.06;;;4.75;51.20
70248;BME280;57641;51.416;5.506;2023-02-28T03:55:53;103143.88;;;4.71;51.55
70248;BME280;57641;51.416;5.506;2023-02-28T03:58:27;103140.44;;;4.69;52.12
70248;BME280;57641;51.416;5.506;2023-02-28T04:03:37;103147.47;;;4.70;51.58
70248;BME280;57641;51.416;5.506;2023-02-28T04:06:04;103144.69;;;4.73;51.65
70248;BME280;57641;51.416;5.506;2023-02-28T04:08:31;103142.78;;;4.77;51.65
70248;BME280;57641;51.416;5.506;2023-02-28T04:11:04;103144.41;;;4.81;52.57
70248;BME280;57641;51.416;5.506;2023-02-28T04:13:32;103140.06;;;4.78;52.58
70248;BME280;57641;51.416;5.506;2023-02-28T04:15:58;103140.88;;;4.80;52.22
70248;BME280;57641;51.416;5.506;2023-02-28T04:18:23;103142.34;;;4.87;52.27
70248;BME280;57641;51.416;5.506;2023-02-28T04:20:49;103150.19;;;4.90;52.55
70248;BME280;57641;51.416;5.506;2023-02-28T04:23:15;103137.63;;;4.95;52.42
70248;BME280;57641;51.416;5.506;2023-02-28T04:25:41;103141.81;;;5.01;52.23
70248;BME280;57641;51.416;5.506;2023-02-28T04:28:06;103149.63;;;5.04;51.82
70248;BME280;57641;51.416;5.506;2023-02-28T04:30:32;103146.00;;;5.06;52.60
70248;BME280;57641;51.416;5.506;2023-02-28T04:32:58;103157.44;;;5.07;52.65
70248;BME280;57641;51.416;5.506;2023-02-28T04:35:24;103152.16;;;5.07;51.57
70248;BME280;57641;51.416;5.506;2023-02-28T04:37:49;103148.56;;;5.08;52.11
70248;BME280;57641;51.416;5.506;2023-02-28T04:40:15;103148.50;;;5.09;52.20
70248;BME280;57641;51.416;5.506;2023-02-28T04:42:44;103152.03;;;5.10;52.10
70248;BME280;57641;51.416;5.506;2023-02-28T04:45:13;103152.75;;;5.14;52.60
70248;BME280;57641;51.416;5.506;2023-02-28T04:47:38;103148.22;;;5.17;51.92
70248;BME280;57641;51.416;5.506;2023-02-28T04:50:04;103147.34;;;5.17;52.88
70248;BME280;57641;51.416;5.506;2023-02-28T04:52:30;103154.38;;;5.18;52.76
70248;BME280;57641;51.416;5.506;2023-02-28T04:54:55;103149.81;;;5.21;52.84
70248;BME280;57641;51.416;5.506;2023-02-28T04:57:21;103147.88;;;5.25;52.37
70248;BME280;57641;51.416;5.506;2023-02-28T04:59:49;103147.03;;;5.24;52.63
70248;BME280;57641;51.416;5.506;2023-02-28T05:02:14;103150.41;;;5.28;52.44
70248;BME280;57641;51.416;5.506;2023-02-28T05:04:40;103151.16;;;5.31;52.97
70248;BME280;57641;51.416;5.506;2023-02-28T05:07:05;103149.47;;;5.29;52.65
70248;BME280;57641;51.416;5.506;2023-02-28T05:09:31;103151.00;;;5.34;52.53
70248;BME280;57641;51.416;5.506;2023-02-28T05:11:58;103150.09;;;5.35;52.42
70248;BME280;57641;51.416;5.506;2023-02-28T05:14:23;103154.50;;;5.35;52.50
70248;BME280;57641;51.416;5.506;2023-02-28T05:16:49;103160.75;;;5.34;53.13
70248;BME280;57641;51.416;5.506;2023-02-28T05:19:15;103165.91;;;5.37;53.12
70248;BME280;57641;51.416;5.506;2023-02-28T05:21:48;103168.50;;;5.38;53.04
70248;BME280;57641;51.416;5.506;2023-02-28T05:24:15;103168.41;;;5.40;53.03
70248;BME280;57641;51.416;5.506;2023-02-28T05:26:42;103166.44;;;5.45;52.71
70248;BME280;57641;51.416;5.506;2023-02-28T05:29:12;103168.06;;;5.49;52.78
70248;BME280;57641;51.416;5.506;2023-02-28T05:31:38;103169.75;;;5.50;53.05
70248;BME280;57641;51.416;5.506;2023-02-28T05:34:05;103168.81;;;5.51;52.55
70248;BME280;57641;51.416;5.506;2023-02-28T05:36:31;103169.59;;;5.55;52.50
70248;BME280;57641;51.416;5.506;2023-02-28T05:39:00;103177.31;;;5.59;52.17
70248;BME280;57641;51.416;5.506;2023-02-28T05:41:25;103176.22;;;5.65;51.85
70248;BME280;57641;51.416;5.506;2023-02-28T05:43:51;103177.78;;;5.69;50.95
70248;BME280;57641;51.416;5.506;2023-02-28T05:46:17;103173.88;;;5.77;50.78
70248;BME280;57641;51.416;5.506;2023-02-28T05:48:46;103178.91;;;5.83;50.00
70248;BME280;57641;51.416;5.506;2023-02-28T05:51:12;103171.78;;;5.85;49.56
70248;BME280;57641;51.416;5.506;2023-02-28T05:53:38;103176.00;;;5.91;49.93
70248;BME280;57641;51.416;5.506;2023-02-28T05:56:06;103173.19;;;5.94;49.32
70248;BME280;57641;51.416;5.506;2023-02-28T05:58:35;103179.50;;;5.91;49.10
70248;BME280;57641;51.416;5.506;2023-02-28T06:03:49;103170.91;;;5.85;48.99
70248;BME280;57641;51.416;5.506;2023-02-28T06:06:15;103173.56;;;5.85;49.53
70248;BME280;57641;51.416;5.506;2023-02-28T06:08:41;103173.50;;;5.86;49.20
70248;BME280;57641;51.416;5.506;2023-02-28T06:11:08;103182.25;;;5.88;48.96
70248;BME280;57641;51.416;5.506;2023-02-28T06:13:34;103183.34;;;5.83;49.13
70248;BME280;57641;51.416;5.506;2023-02-28T06:16:07;103176.22;;;5.85;49.15
70248;BME280;57641;51.416;5.506;2023-02-28T06:18:33;103178.91;;;5.83;49.49
70248;BME280;57641;51.416;5.506;2023-02-28T06:20:58;103183.22;;;5.86;49.64
70248;BME280;57641;51.416;5.506;2023-02-28T06:23:24;103184.97;;;5.87;49.68
70248;BME280;57641;51.416;5.506;2023-02-28T06:25:50;103184.91;;;5.88;49.60
70248;BME280;57641;51.416;5.506;2023-02-28T06:28:16;103182.16;;;5.91;49.15
70248;BME280;57641;51.416;5.506;2023-02-28T06:30:41;103190.75;;;5.97;49.10
70248;BME280;57641;51.416;5.506;2023-02-28T06:33:07;103185.38;;;5.98;49.47
70248;BME280;57641;51.416;5.506;2023-02-28T06:35:32;103187.09;;;5.99;49.28
70248;BME280;57641;51.416;5.506;2023-02-28T06:37:58;103197.69;;;5.99;49.37
70248;BME280;57641;51.416;5.506;2023-02-28T06:40:23;103195.91;;;6.00;49.04
70248;BME280;57641;51.416;5.506;2023-02-28T06:42:49;103198.44;;;6.03;49.37
70248;BME280;57641;51.416;5.506;2023-02-28T06:45:15;103191.25;;;6.05;49.48
70248;BME280;57641;51.416;5.506;2023-02-28T06:47:41;103190.94;;;6.12;49.03
70248;BME280;57641;51.416;5.506;2023-02-28T06:50:09;103198.09;;;6.10;49.00
70248;BME280;57641;51.416;5.506;2023-02-28T06:52:35;103203.31;;;6.12;48.72
70248;BME280;57641;51.416;5.506;2023-02-28T06:55:07;103203.31;;;6.12;47.98
70248;BME280;57641;51.416;5.506;2023-02-28T06:57:34;103204.25;;;6.11;47.94
70248;BME280;57641;51.416;5.506;2023-02-28T07:00:06;103207.75;;;6.11;48.03
70248;BME280;57641;51.416;5.506;2023-02-28T07:02:34;103213.09;;;6.10;47.90
70248;BME280;57641;51.416;5.506;2023-02-28T07:05:00;103206.88;;;6.11;48.00
70248;BME280;57641;51.416;5.506;2023-02-28T07:07:25;103207.81;;;6.10;48.33
70248;BME280;57641;51.416;5.506;2023-02-28T07:09:51;103220.13;;;6.11;48.00
70248;BME280;57641;51.416;5.506;2023-02-28T07:12:16;103226.91;;;6.18;47.41
70248;BME280;57641;51.416;5.506;2023-02-28T07:14:45;103219.91;;;6.15;47.36
70248;BME280;57641;51.416;5.506;2023-02-28T07:17:11;103231.22;;;6.19;47.23
70248;BME280;57641;51.416;5.506;2023-02-28T07:19:38;103228.53;;;6.20;47.23
70248;BME280;57641;51.416;5.506;2023-02-28T07:22:04;103229.13;;;6.27;46.91
70248;BME280;57641;51.416;5.506;2023-02-28T07:24:30;103227.00;;;6.35;46.50
70248;BME280;57641;51.416;5.506;2023-02-28T07:26:56;103228.59;;;6.39;45.71
70248;BME280;57641;51.416;5.506;2023-02-28T07:29:21;103237.97;;;6.46;45.75
70248;BME280;57641;51.416;5.506;2023-02-28T07:31:47;103234.28;;;6.50;45.80
70248;BME280;57641;51.416;5.506;2023-02-28T07:34:16;103235.00;;;6.54;45.29
70248;BME280;57641;51.416;5.506;2023-02-28T07:36:41;103233.97;;;6.56;44.98
70248;BME280;57641;51.416;5.506;2023-02-28T07:39:07;103234.84;;;6.57;44.76
70248;BME280;57641;51.416;5.506;2023-02-28T07:41:35;103233.00;;;6.59;44.51
70248;BME280;57641;51.416;5.506;2023-02-28T07:44:05;103233.59;;;6.65;44.08
70248;BME280;57641;51.416;5.506;2023-02-28T07:46:30;103227.00;;;6.74;43.69
70248;BME280;57641;51.416;5.506;2023-02-28T07:49:00;103229.97;;;6.66;43.94
70248;BME280;57641;51.416;5.506;2023-02-28T07:51:29;103240.84;;;6.81;43.65
70248;BME280;57641;51.416;5.506;2023-02-28T07:53:55;103239.75;;;6.85;43.29
70248;BME280;57641;51.416;5.506;2023-02-28T07:56:21;103240.25;;;6.93;43.04
70248;BME280;57641;51.416;5.506;2023-02-28T07:58:46;103245.53;;;6.93;43.18
70248;BME280;57641;51.416;5.506;2023-02-28T08:01:12;103248.94;;;6.96;42.44
70248;BME280;57641;51.416;5.506;2023-02-28T08:03:39;103246.13;;;6.99;42.24
70248;BME280;57641;51.416;5.506;2023-02-28T08:06:07;103244.69;;;7.11;41.77
70248;BME280;57641;51.416;5.506;2023-02-28T08:08:33;103249.09;;;7.12;40.40
70248;BME280;57641;51.416;5.506;2023-02-28T08:11:02;103253.22;;;7.36;39.81
70248;BME280;57641;51.416;5.506;2023-02-28T08:13:29;103250.19;;;7.44;39.81
70248;BME280;57641;51.416;5.506;2023-02-28T08:15:55;103251.06;;;7.44;39.32
70248;BME280;57641;51.416;5.506;2023-02-28T08:18:21;103244.38;;;7.36;39.75
70248;BME280;57641;51.416;5.506;2023-02-28T08:20:48;103250.56;;;7.36;38.76
70248;BME280;57641;51.416;5.506;2023-02-28T08:23:13;103245.47;;;7.32;39.17
70248;BME280;57641;51.416;5.506;2023-02-28T08:25:39;103246.03;;;7.38;38.97
70248;BME280;57641;51.416;5.506;2023-02-28T08:28:05;103233.81;;;7.53;37.81
70248;BME280;57641;51.416;5.506;2023-02-28T08:30:30;103241.06;;;7.49;38.04
70248;BME280;57641;51.416;5.506;2023-02-28T08:32:56;103232.38;;;7.46;37.34
70248;BME280;57641;51.416;5.506;2023-02-28T08:35:22;103239.28;;;7.50;37.30
70248;BME280;57641;51.416;5.506;2023-02-28T08:37:48;103235.31;;;7.58;37.59
70248;BME280;57641;51.416;5.506;2023-02-28T08:40:15;103241.66;;;7.56;37.80
70248;BME280;57641;51.416;5.506;2023-02-28T08:42:47;103239.28;;;7.67;36.92
70248;BME280;57641;51.416;5.506;2023-02-28T08:45:14;103238.06;;;7.74;36.63
70248;BME280;57641;51.416;5.506;2023-02-28T08:47:40;103235.81;;;8.01;35.17
70248;BME280;57641;51.416;5.506;2023-02-28T08:50:06;103241.84;;;7.87;36.10
70248;BME280;57641;51.416;5.506;2023-02-28T08:52:32;103232.38;;;7.82;36.15
70248;BME280;57641;51.416;5.506;2023-02-28T08:54:58;103233.16;;;7.84;36.57
70248;BME280;57641;51.416;5.506;2023-02-28T08:57:23;103239.38;;;7.83;35.78
70248;BME280;57641;51.416;5.506;2023-02-28T08:59:51;103234.63;;;8.06;35.00
70248;BME280;57641;51.416;5.506;2023-02-28T09:02:17;103234.88;;;8.19;34.71
70248;BME280;57641;51.416;5.506;2023-02-28T09:04:43;103240.88;;;8.23;33.47
70248;BME280;57641;51.416;5.506;2023-02-28T09:07:11;103232.34;;;8.16;33.78
70248;BME280;57641;51.416;5.506;2023-02-28T09:09:37;103231.53;;;8.33;33.08
70248;BME280;57641;51.416;5.506;2023-02-28T09:12:03;103231.13;;;8.23;33.33
70248;BME280;57641;51.416;5.506;2023-02-28T09:14:30;103237.84;;;8.30;32.74
70248;BME280;57641;51.416;5.506;2023-02-28T09:16:56;103244.16;;;8.11;32.97
70248;BME280;57641;51.416;5.506;2023-02-28T09:19:21;103240.03;;;8.05;33.16
70248;BME280;57641;51.416;5.506;2023-02-28T09:21:47;103238.47;;;8.18;32.27
70248;BME280;57641;51.416;5.506;2023-02-28T09:24:13;103232.53;;;8.30;32.29
70248;BME280;57641;51.416;5.506;2023-02-28T09:26:40;103232.94;;;8.40;31.82
70248;BME280;57641;51.416;5.506;2023-02-28T09:29:06;103242.03;;;8.52;31.01
70248;BME280;57641;51.416;5.506;2023-02-28T09:31:32;103224.28;;;8.52;30.06
70248;BME280;57641;51.416;5.506;2023-02-28T09:33:58;103230.03;;;8.44;31.10
70248;BME280;57641;51.416;5.506;2023-02-28T09:36:25;103235.03;;;8.33;31.61
70248;BME280;57641;51.416;5.506;2023-02-28T09:38:52;103232.19;;;8.36;31.69
70248;BME280;57641;51.416;5.506;2023-02-28T09:43:46;103231.13;;;8.40;31.16
70248;BME280;57641;51.416;5.506;2023-02-28T09:46:42;103241.09;;;8.53;31.13
70248;BME280;57641;51.416;5.506;2023-02-28T09:49:19;103235.81;;;8.68;30.18
70248;BME280;57641;51.416;5.506;2023-02-28T09:54:30;103233.53;;;8.45;30.53
70248;BME280;57641;51.416;5.506;2023-02-28T09:57:07;103227.03;;;8.51;30.69
70248;BME280;57641;51.416;5.506;2023-02-28T10:02:41;103234.63;;;8.74;28.65
70248;BME280;57641;51.416;5.506;2023-02-28T10:05:14;103231.78;;;8.61;29.44
70248;BME280;57641;51.416;5.506;2023-02-28T10:08:00;103220.97;;;8.64;29.59
70248;BME280;57641;51.416;5.506;2023-02-28T10:10:50;103226.44;;;8.45;29.64
70248;BME280;57641;51.416;5.506;2023-02-28T10:13:26;103220.72;;;8.69;28.94
70248;BME280;57641;51.416;5.506;2023-02-28T10:15:58;103213.94;;;8.63;28.62
70248;BME280;57641;51.416;5.506;2023-02-28T10:18:31;103222.09;;;8.76;28.45
70248;BME280;57641;51.416;5.506;2023-02-28T10:21:01;103223.84;;;8.77;28.51
70248;BME280;57641;51.416;5.506;2023-02-28T10:23:35;103219.44;;;8.76;29.01
70248;BME280;57641;51.416;5.506;2023-02-28T10:26:14;103209.41;;;8.81;29.27
70248;BME280;57641;51.416;5.506;2023-02-28T10:28:41;103206.84;;;8.95;29.56
70248;BME280;57641;51.416;5.506;2023-02-28T10:33:37;103208.38;;;9.15;28.80
70248;BME280;57641;51.416;5.506;2023-02-28T10:36:04;103199.03;;;9.08;29.69
70248;BME280;57641;51.416;5.506;2023-02-28T10:38:37;103195.69;;;9.20;29.48
70248;BME280;57641;51.416;5.506;2023-02-28T10:41:30;103190.69;;;9.29;28.61
70248;BME280;57641;51.416;5.506;2023-02-28T10:46:43;103200.03;;;9.37;27.45
70248;BME280;57641;51.416;5.506;2023-02-28T10:49:20;103205.94;;;9.42;27.31
70248;BME280;57641;51.416;5.506;2023-02-28T10:51:50;103207.75;;;9.41;28.56
70248;BME280;57641;51.416;5.506;2023-02-28T10:54:31;103206.03;;;9.56;26.94
70248;BME280;57641;51.416;5.506;2023-02-28T10:57:28;103193.78;;;9.38;27.93
70248;BME280;57641;51.416;5.506;2023-02-28T11:00:16;103184.81;;;9.54;28.19
70248;BME280;57641;51.416;5.506;2023-02-28T11:02:42;103184.75;;;9.40;28.16
70248;BME280;57641;51.416;5.506;2023-02-28T11:05:33;103184.31;;;9.48;28.92
70248;BME280;57641;51.416;5.506;2023-02-28T11:08:12;103177.84;;;9.67;28.29
70248;BME280;57641;51.416;5.506;2023-02-28T11:10:39;103184.13;;;9.81;27.45
70248;BME280;57641;51.416;5.506;2023-02-28T11:13:17;103182.28;;;9.67;28.08
70248;BME280;57641;51.416;5.506;2023-02-28T11:15:57;103189.72;;;9.76;28.07
70248;BME280;57641;51.416;5.506;2023-02-28T11:18:30;103184.66;;;10.01;26.97
70248;BME280;57641;51.416;5.506;2023-02-28T11:21:01;103184.94;;;9.97;27.24
70248;BME280;57641;51.416;5.506;2023-02-28T11:23:30;103187.28;;;10.17;27.29
70248;BME280;57641;51.416;5.506;2023-02-28T11:26:01;103185.56;;;10.16;27.37
70248;BME280;57641;51.416;5.506;2023-02-28T11:31:15;103171.19;;;10.33;26.70
70248;BME280;57641;51.416;5.506;2023-02-28T11:38:45;103165.50;;;10.25;27.87
70248;BME280;57641;51.416;5.506;2023-02-28T11:44:32;103152.44;;;10.34;27.84
70248;BME280;57641;51.416;5.506;2023-02-28T11:52:42;103155.69;;;10.39;28.46
70248;BME280;57641;51.416;5.506;2023-02-28T11:55:20;103152.72;;;10.44;27.99
70248;BME280;57641;51.416;5.506;2023-02-28T12:00:51;103157.66;;;10.50;27.21
70248;BME280;57641;51.416;5.506;2023-02-28T12:06:36;103142.31;;;10.53;26.55
70248;BME280;57641;51.416;5.506;2023-02-28T12:20:08;103135.78;;;10.31;28.02
70248;BME280;57641;51.416;5.506;2023-02-28T12:25:43;103135.59;;;10.34;27.09
70248;BME280;57641;51.416;5.506;2023-02-28T12:28:16;103141.41;;;10.40;27.92
70248;BME280;57641;51.416;5.506;2023-02-28T12:30:54;103135.13;;;10.41;27.63
70248;BME280;57641;51.416;5.506;2023-02-28T12:33:26;103124.63;;;10.38;27.24
70248;BME280;57641;51.416;5.506;2023-02-28T12:35:59;103124.53;;;10.40;27.57
70248;BME280;57641;51.416;5.506;2023-02-28T12:38:29;103129.16;;;10.65;27.30
70248;BME280;57641;51.416;5.506;2023-02-28T12:41:12;103123.16;;;10.61;26.96
70248;BME280;57641;51.416;5.506;2023-02-28T12:43:45;103116.38;;;10.70;27.83
70248;BME280;57641;51.416;5.506;2023-02-28T12:46:23;103120.13;;;10.53;27.04
70248;BME280;57641;51.416;5.506;2023-02-28T12:48:55;103115.44;;;10.71;26.65
70248;BME280;57641;51.416;5.506;2023-02-28T12:51:23;103103.44;;;10.64;27.99
70248;BME280;57641;51.416;5.506;2023-02-28T12:59:26;103096.44;;;10.75;27.26
70248;BME280;57641;51.416;5.506;2023-02-28T13:04:55;103095.84;;;10.43;27.76
70248;BME280;57641;51.416;5.506;2023-02-28T13:10:00;103088.03;;;10.54;27.52
70248;BME280;57641;51.416;5.506;2023-02-28T13:12:28;103090.38;;;10.73;27.54
70248;BME280;57641;51.416;5.506;2023-02-28T13:15:05;103079.72;;;10.59;27.64
70248;BME280;57641;51.416;5.506;2023-02-28T13:17:38;103075.25;;;10.59;27.12
70248;BME280;57641;51.416;5.506;2023-02-28T13:20:18;103075.91;;;10.63;27.62
70248;BME280;57641;51.416;5.506;2023-02-28T13:22:47;103077.38;;;10.81;26.65
70248;BME280;57641;51.416;5.506;2023-02-28T13:27:50;103073.94;;;10.79;26.62
70248;BME280;57641;51.416;5.506;2023-02-28T13:33:29;103077.94;;;10.86;27.16
70248;BME280;57641;51.416;5.506;2023-02-28T13:36:28;103071.13;;;10.68;26.81
70248;BME280;57641;51.416;5.506;2023-02-28T13:39:00;103069.94;;;10.86;26.87
70248;BME280;57641;51.416;5.506;2023-02-28T13:46:31;103059.88;;;10.77;26.95
70248;BME280;57641;51.416;5.506;2023-02-28T13:58:02;103053.75;;;10.48;27.46
70248;BME280;57641;51.416;5.506;2023-02-28T14:01:06;103053.66;;;10.50;28.25
70248;BME280;57641;51.416;5.506;2023-02-28T14:06:38;103051.28;;;10.45;28.32
70248;BME280;57641;51.416;5.506;2023-02-28T14:11:39;103048.22;;;10.51;27.27
70248;BME280;57641;51.416;5.506;2023-02-28T14:14:07;103045.66;;;10.50;27.78
70248;BME280;57641;51.416;5.506;2023-02-28T14:16:45;103049.81;;;10.54;28.38
70248;BME280;57641;51.416;5.506;2023-02-28T14:19:30;103043.78;;;10.65;27.95
70248;BME280;57641;51.416;5.506;2023-02-28T14:27:42;103037.84;;;10.74;27.70
70248;BME280;57641;51.416;5.506;2023-02-28T14:32:44;103044.91;;;10.75;28.07
70248;BME280;57641;51.416;5.506;2023-02-28T14:38:18;103045.72;;;10.63;28.75
70248;BME280;57641;51.416;5.506;2023-02-28T14:40:47;103039.31;;;10.65;27.89
70248;BME280;57641;51.416;5.506;2023-02-28T14:43:24;103041.22;;;10.63;28.29
70248;BME280;57641;51.416;5.506;2023-02-28T14:45:58;103037.28;;;10.69;27.97
70248;BME280;57641;51.416;5.506;2023-02-28T14:48:25;103033.75;;;10.68;28.63
70248;BME280;57641;51.416;5.506;2023-02-28T14:51:01;103037.59;;;10.91;27.98
70248;BME280;57641;51.416;5.506;2023-02-28T14:53:35;103028.31;;;10.84;28.05
70248;BME280;57641;51.416;5.506;2023-02-28T14:56:02;103041.38;;;10.74;28.12
70248;BME280;57641;51.416;5.506;2023-02-28T14:58:33;103034.91;;;10.78;28.40
70248;BME280;57641;51.416;5.506;2023-02-28T15:01:02;103030.13;;;10.83;28.59
70248;BME280;57641;51.416;5.506;2023-02-28T15:03:37;103029.25;;;10.83;28.64
70248;BME280;57641;51.416;5.506;2023-02-28T15:06:13;103028.88;;;10.75;27.69
70248;BME280;57641;51.416;5.506;2023-02-28T15:08:39;103031.06;;;10.82;28.09
70248;BME280;57641;51.416;5.506;2023-02-28T15:11:08;103027.31;;;10.85;28.55
70248;BME280;57641;51.416;5.506;2023-02-28T15:13:40;103023.78;;;10.84;28.64
70248;BME280;57641;51.416;5.506;2023-02-28T15:21:19;103030.91;;;10.98;28.91
70248;BME280;57641;51.416;5.506;2023-02-28T15:23:53;103022.75;;;10.87;28.63
70248;BME280;57641;51.416;5.506;2023-02-28T15:26:22;103031.75;;;10.98;28.91
70248;BME280;57641;51.416;5.506;2023-02-28T15:28:59;103032.19;;;11.05;28.42
70248;BME280;57641;51.416;5.506;2023-02-28T15:31:32;103034.66;;;11.08;28.30
70248;BME280;57641;51.416;5.506;2023-02-28T15:34:03;103030.09;;;11.10;27.84
70248;BME280;57641;51.416;5.506;2023-02-28T15:36:32;103028.56;;;11.06;27.86